Orondo, Washington
Current Conditions -  °F | °C
As of 9:55 AM on Sunday 23 Nov 2014 (Local Time) from KEAT Reporting Station
Overcast Overcast  
Wind Chill: 36°   Ceiling: 5500
Heat Index: 43°   Visibility: 10mi
Dew Point: 31°   Wind: 13mph
Humidity: 62%   Direction: 70°ENE
Pressure: 30.03"   Gusts: NA
Location:  47.63°N, 120.22°W
Report Text: KEAT 231755Z AUTO 07011KT 10SM BKN055 BKN075 OVC090 06/M01 A3003 RMK AO2 SLP173 T00611006 10061 20011 56012
Loading
Personal Weather Stations






























Interactive Weather Map New forecast layout! Learn more

10-Day Weather Forecast

Advertisements
Track Severe Weather on mobile